sensor_id;sensor_type;location;lat;lon;timestamp;pressure;altitude;pressure_sealevel;temperature;humidity
47967;BME280;33733;52.456;13.620;2024-01-11T00:00:33;102904.22;;;-5.47;57.74
47967;BME280;33733;52.456;13.620;2024-01-11T00:03:00;102896.75;;;-5.40;57.65
47967;BME280;33733;52.456;13.620;2024-01-11T00:05:27;102895.63;;;-5.48;57.85
47967;BME280;33733;52.456;13.620;2024-01-11T00:07:55;102894.69;;;-5.51;57.63
47967;BME280;33733;52.456;13.620;2024-01-11T00:10:22;102897.75;;;-5.63;57.91
47967;BME280;33733;52.456;13.620;2024-01-11T00:12:50;102899.66;;;-5.57;57.94
47967;BME280;33733;52.456;13.620;2024-01-11T00:15:17;102907.44;;;-5.54;57.81
47967;BME280;33733;52.456;13.620;2024-01-11T00:17:45;102919.75;;;-5.71;58.17
47967;BME280;33733;52.456;13.620;2024-01-11T00:20:12;102903.84;;;-5.59;57.72
47967;BME280;33733;52.456;13.620;2024-01-11T00:22:39;102896.13;;;-5.59;57.71
47967;BME280;33733;52.456;13.620;2024-01-11T00:25:07;102893.47;;;-5.62;57.54
47967;BME280;33733;52.456;13.620;2024-01-11T00:27:35;102880.53;;;-5.65;57.56
47967;BME280;33733;52.456;13.620;2024-01-11T00:30:02;102886.53;;;-5.65;57.81
47967;BME280;33733;52.456;13.620;2024-01-11T00:32:30;102876.41;;;-5.60;57.90
47967;BME280;33733;52.456;13.620;2024-01-11T00:34:57;102869.63;;;-5.87;59.31
47967;BME280;33733;52.456;13.620;2024-01-11T00:37:24;102868.47;;;-5.68;58.70
47967;BME280;33733;52.456;13.620;2024-01-11T00:39:52;102862.72;;;-5.59;58.75
47967;BME280;33733;52.456;13.620;2024-01-11T00:42:19;102861.22;;;-5.53;59.12
47967;BME280;33733;52.456;13.620;2024-01-11T00:44:46;102863.84;;;-5.51;58.72
47967;BME280;33733;52.456;13.620;2024-01-11T00:47:13;102849.44;;;-5.46;58.88
47967;BME280;33733;52.456;13.620;2024-01-11T00:49:41;102843.59;;;-5.97;60.76
47967;BME280;33733;52.456;13.620;2024-01-11T00:52:09;102841.78;;;-5.72;60.61
47967;BME280;33733;52.456;13.620;2024-01-11T00:54:36;102829.38;;;-5.58;60.35
47967;BME280;33733;52.456;13.620;2024-01-11T00:57:04;102837.47;;;-5.73;62.01
47967;BME280;33733;52.456;13.620;2024-01-11T00:59:31;102834.69;;;-5.52;61.40
47967;BME280;33733;52.456;13.620;2024-01-11T01:01:58;102839.19;;;-5.45;61.04
47967;BME280;33733;52.456;13.620;2024-01-11T01:04:25;102835.66;;;-5.48;60.53
47967;BME280;33733;52.456;13.620;2024-01-11T01:06:52;102848.50;;;-5.48;60.64
47967;BME280;33733;52.456;13.620;2024-01-11T01:09:20;102848.91;;;-5.63;60.71
47967;BME280;33733;52.456;13.620;2024-01-11T01:11:47;102815.34;;;-5.97;61.09
47967;BME280;33733;52.456;13.620;2024-01-11T01:14:14;102785.41;;;-7.25;67.17
47967;BME280;33733;52.456;13.620;2024-01-11T01:16:41;102803.44;;;-6.73;68.23
47967;BME280;33733;52.456;13.620;2024-01-11T01:19:08;102811.31;;;-6.16;66.16
47967;BME280;33733;52.456;13.620;2024-01-11T01:21:36;102811.22;;;-5.92;65.29
47967;BME280;33733;52.456;13.620;2024-01-11T01:24:03;102807.59;;;-5.69;64.49
47967;BME280;33733;52.456;13.620;2024-01-11T01:26:30;102808.84;;;-5.56;63.72
47967;BME280;33733;52.456;13.620;2024-01-11T01:28:58;102815.00;;;-5.51;63.27
47967;BME280;33733;52.456;13.620;2024-01-11T01:31:25;102817.88;;;-5.41;63.04
47967;BME280;33733;52.456;13.620;2024-01-11T01:33:52;102812.72;;;-5.42;62.11
47967;BME280;33733;52.456;13.620;2024-01-11T01:36:20;102822.03;;;-5.46;62.06
47967;BME280;33733;52.456;13.620;2024-01-11T01:38:47;102833.28;;;-5.42;61.31
47967;BME280;33733;52.456;13.620;2024-01-11T01:41:14;102834.69;;;-5.52;61.42
47967;BME280;33733;52.456;13.620;2024-01-11T01:43:41;102836.72;;;-5.42;61.44
47967;BME280;33733;52.456;13.620;2024-01-11T01:46:08;102822.19;;;-5.40;60.78
47967;BME280;33733;52.456;13.620;2024-01-11T01:48:36;102820.50;;;-5.39;60.81
47967;BME280;33733;52.456;13.620;2024-01-11T01:51:05;102815.16;;;-5.45;61.08
47967;BME280;33733;52.456;13.620;2024-01-11T01:53:33;102818.25;;;-5.57;60.86
47967;BME280;33733;52.456;13.620;2024-01-11T01:56:01;102820.31;;;-5.45;60.83
47967;BME280;33733;52.456;13.620;2024-01-11T01:58:28;102818.72;;;-5.42;60.47
47967;BME280;33733;52.456;13.620;2024-01-11T02:00:56;102830.25;;;-5.57;60.47
47967;BME280;33733;52.456;13.620;2024-01-11T02:03:26;102832.25;;;-5.47;60.05
47967;BME280;33733;52.456;13.620;2024-01-11T02:05:55;102851.34;;;-5.68;60.83
47967;BME280;33733;52.456;13.620;2024-01-11T02:08:25;102845.91;;;-5.77;60.87
47967;BME280;33733;52.456;13.620;2024-01-11T02:10:53;102844.88;;;-5.83;60.63
47967;BME280;33733;52.456;13.620;2024-01-11T02:13:20;102857.28;;;-5.97;60.96
47967;BME280;33733;52.456;13.620;2024-01-11T02:15:48;102869.28;;;-5.97;61.31
47967;BME280;33733;52.456;13.620;2024-01-11T02:18:15;102858.72;;;-5.78;61.44
47967;BME280;33733;52.456;13.620;2024-01-11T02:20:42;102859.78;;;-5.72;61.22
47967;BME280;33733;52.456;13.620;2024-01-11T02:23:15;102859.06;;;-5.68;61.26
47967;BME280;33733;52.456;13.620;2024-01-11T02:25:44;102862.66;;;-5.62;61.48
47967;BME280;33733;52.456;13.620;2024-01-11T02:28:11;102857.41;;;-5.65;62.74
47967;BME280;33733;52.456;13.620;2024-01-11T02:30:38;102848.41;;;-5.51;62.54
47967;BME280;33733;52.456;13.620;2024-01-11T02:33:06;102864.38;;;-5.33;62.06
47967;BME280;33733;52.456;13.620;2024-01-11T02:35:34;102866.25;;;-5.28;62.25
47967;BME280;33733;52.456;13.620;2024-01-11T02:38:02;102866.53;;;-5.18;62.54
47967;BME280;33733;52.456;13.620;2024-01-11T02:40:29;102853.97;;;-5.08;62.16
47967;BME280;33733;52.456;13.620;2024-01-11T02:42:56;102862.50;;;-5.09;62.84
47967;BME280;33733;52.456;13.620;2024-01-11T02:45:23;102852.44;;;-5.01;62.92
47967;BME280;33733;52.456;13.620;2024-01-11T02:47:51;102841.50;;;-4.94;62.84
47967;BME280;33733;52.456;13.620;2024-01-11T02:50:18;102817.44;;;-4.96;63.92
47967;BME280;33733;52.456;13.620;2024-01-11T02:52:45;102817.69;;;-5.18;66.77
47967;BME280;33733;52.456;13.620;2024-01-11T02:55:13;102815.03;;;-4.90;66.07
47967;BME280;33733;52.456;13.620;2024-01-11T02:57:40;102806.66;;;-4.82;65.64
47967;BME280;33733;52.456;13.620;2024-01-11T03:00:07;102813.81;;;-4.71;65.31
47967;BME280;33733;52.456;13.620;2024-01-11T03:02:35;102818.34;;;-4.63;64.98
47967;BME280;33733;52.456;13.620;2024-01-11T03:05:04;102814.13;;;-4.59;64.99
47967;BME280;33733;52.456;13.620;2024-01-11T03:07:31;102822.00;;;-4.53;65.32
47967;BME280;33733;52.456;13.620;2024-01-11T03:09:59;102816.06;;;-4.51;64.97
47967;BME280;33733;52.456;13.620;2024-01-11T03:12:27;102829.00;;;-4.48;64.98
47967;BME280;33733;52.456;13.620;2024-01-11T03:14:54;102828.22;;;-4.45;65.82
47967;BME280;33733;52.456;13.620;2024-01-11T03:17:21;102827.31;;;-4.47;65.70
47967;BME280;33733;52.456;13.620;2024-01-11T03:19:48;102818.03;;;-4.41;65.84
47967;BME280;33733;52.456;13.620;2024-01-11T03:22:15;102814.69;;;-4.38;65.77
47967;BME280;33733;52.456;13.620;2024-01-11T03:24:43;102816.56;;;-4.31;65.80
47967;BME280;33733;52.456;13.620;2024-01-11T03:27:10;102808.09;;;-4.27;65.64
47967;BME280;33733;52.456;13.620;2024-01-11T03:29:37;102824.44;;;-4.25;66.70
47967;BME280;33733;52.456;13.620;2024-01-11T03:32:05;102811.56;;;-4.25;66.32
47967;BME280;33733;52.456;13.620;2024-01-11T03:34:32;102816.00;;;-4.19;66.18
47967;BME280;33733;52.456;13.620;2024-01-11T03:36:59;102802.13;;;-4.24;66.74
47967;BME280;33733;52.456;13.620;2024-01-11T03:39:27;102804.94;;;-4.14;66.87
47967;BME280;33733;52.456;13.620;2024-01-11T03:41:54;102802.47;;;-4.11;66.86
47967;BME280;33733;52.456;13.620;2024-01-11T03:44:22;102800.56;;;-4.18;66.80
47967;BME280;33733;52.456;13.620;2024-01-11T03:46:49;102784.34;;;-4.14;67.41
47967;BME280;33733;52.456;13.620;2024-01-11T03:49:16;102785.31;;;-4.09;67.47
47967;BME280;33733;52.456;13.620;2024-01-11T03:51:44;102778.66;;;-4.01;67.20
47967;BME280;33733;52.456;13.620;2024-01-11T03:54:11;102782.19;;;-3.96;67.06
47967;BME280;33733;52.456;13.620;2024-01-11T03:56:39;102780.91;;;-4.14;66.97
47967;BME280;33733;52.456;13.620;2024-01-11T03:59:06;102769.94;;;-4.06;66.69
47967;BME280;33733;52.456;13.620;2024-01-11T04:01:39;102778.72;;;-3.98;66.78
47967;BME280;33733;52.456;13.620;2024-01-11T04:04:06;102789.59;;;-4.09;66.89
47967;BME280;33733;52.456;13.620;2024-01-11T04:06:34;102778.41;;;-4.11;66.96
47967;BME280;33733;52.456;13.620;2024-01-11T04:09:01;102779.69;;;-3.94;67.03
47967;BME280;33733;52.456;13.620;2024-01-11T04:11:28;102764.22;;;-3.94;66.91
47967;BME280;33733;52.456;13.620;2024-01-11T04:13:56;102758.25;;;-3.92;66.67
47967;BME280;33733;52.456;13.620;2024-01-11T04:16:23;102764.44;;;-3.82;66.76
47967;BME280;33733;52.456;13.620;2024-01-11T04:18:50;102766.25;;;-3.78;66.73
47967;BME280;33733;52.456;13.620;2024-01-11T04:21:24;102762.06;;;-3.74;66.76
47967;BME280;33733;52.456;13.620;2024-01-11T04:23:52;102754.06;;;-3.87;67.16
47967;BME280;33733;52.456;13.620;2024-01-11T04:26:19;102773.22;;;-3.74;66.73
47967;BME280;33733;52.456;13.620;2024-01-11T04:28:47;102797.25;;;-3.76;66.98
47967;BME280;33733;52.456;13.620;2024-01-11T04:31:15;102786.00;;;-3.80;66.98
47967;BME280;33733;52.456;13.620;2024-01-11T04:33:44;102788.69;;;-3.74;67.00
47967;BME280;33733;52.456;13.620;2024-01-11T04:36:12;102776.63;;;-3.76;67.11
47967;BME280;33733;52.456;13.620;2024-01-11T04:38:40;102771.63;;;-3.70;67.01
47967;BME280;33733;52.456;13.620;2024-01-11T04:41:08;102782.69;;;-3.73;67.88
47967;BME280;33733;52.456;13.620;2024-01-11T04:43:39;102795.03;;;-3.60;66.85
47967;BME280;33733;52.456;13.620;2024-01-11T04:46:19;102777.91;;;-3.56;67.25
47967;BME280;33733;52.456;13.620;2024-01-11T04:48:48;102776.97;;;-3.60;67.50
47967;BME280;33733;52.456;13.620;2024-01-11T04:51:17;102783.16;;;-3.52;67.23
47967;BME280;33733;52.456;13.620;2024-01-11T04:53:45;102769.34;;;-3.54;67.88
47967;BME280;33733;52.456;13.620;2024-01-11T04:56:16;102758.03;;;-3.62;68.04
47967;BME280;33733;52.456;13.620;2024-01-11T04:58:46;102741.94;;;-3.50;68.69
47967;BME280;33733;52.456;13.620;2024-01-11T05:01:15;102739.19;;;-3.58;68.71
47967;BME280;33733;52.456;13.620;2024-01-11T05:03:44;102722.22;;;-3.48;69.24
47967;BME280;33733;52.456;13.620;2024-01-11T05:06:18;102743.72;;;-3.46;68.95
47967;BME280;33733;52.456;13.620;2024-01-11T05:08:47;102730.97;;;-3.40;68.69
47967;BME280;33733;52.456;13.620;2024-01-11T05:11:18;102715.72;;;-3.71;71.04
47967;BME280;33733;52.456;13.620;2024-01-11T05:13:46;102720.22;;;-3.61;70.95
47967;BME280;33733;52.456;13.620;2024-01-11T05:18:50;102754.19;;;-3.40;70.45
47967;BME280;33733;52.456;13.620;2024-01-11T05:21:19;102755.94;;;-3.38;70.61
47967;BME280;33733;52.456;13.620;2024-01-11T05:23:47;102725.75;;;-3.43;71.32
47967;BME280;33733;52.456;13.620;2024-01-11T05:26:16;102728.94;;;-3.56;72.58
47967;BME280;33733;52.456;13.620;2024-01-11T05:28:43;102751.66;;;-3.37;71.58
47967;BME280;33733;52.456;13.620;2024-01-11T05:31:13;102750.22;;;-3.23;71.02
47967;BME280;33733;52.456;13.620;2024-01-11T05:33:42;102750.22;;;-3.23;71.06
47967;BME280;33733;52.456;13.620;2024-01-11T05:36:09;102740.47;;;-3.38;72.12
47967;BME280;33733;52.456;13.620;2024-01-11T05:38:38;102727.47;;;-3.44;72.46
47967;BME280;33733;52.456;13.620;2024-01-11T05:41:05;102727.44;;;-3.87;73.85
47967;BME280;33733;52.456;13.620;2024-01-11T05:43:33;102713.25;;;-4.06;74.50
47967;BME280;33733;52.456;13.620;2024-01-11T05:46:00;102727.09;;;-4.02;75.31
47967;BME280;33733;52.456;13.620;2024-01-11T05:48:27;102715.06;;;-3.63;74.06
47967;BME280;33733;52.456;13.620;2024-01-11T05:50:54;102714.34;;;-3.96;74.41
47967;BME280;33733;52.456;13.620;2024-01-11T05:53:22;102722.44;;;-3.78;74.62
47967;BME280;33733;52.456;13.620;2024-01-11T05:55:49;102711.84;;;-3.50;73.58
47967;BME280;33733;52.456;13.620;2024-01-11T05:58:20;102713.91;;;-3.34;72.95
47967;BME280;33733;52.456;13.620;2024-01-11T06:00:47;102721.06;;;-3.19;72.16
47967;BME280;33733;52.456;13.620;2024-01-11T06:03:15;102748.72;;;-3.12;72.21
47967;BME280;33733;52.456;13.620;2024-01-11T06:05:42;102740.28;;;-3.03;72.00
47967;BME280;33733;52.456;13.620;2024-01-11T06:08:09;102747.25;;;-2.98;71.80
47967;BME280;33733;52.456;13.620;2024-01-11T06:10:37;102754.25;;;-2.92;71.46
47967;BME280;33733;52.456;13.620;2024-01-11T06:13:05;102731.06;;;-2.89;70.81
47967;BME280;33733;52.456;13.620;2024-01-11T06:15:32;102718.06;;;-2.94;71.59
47967;BME280;33733;52.456;13.620;2024-01-11T06:17:59;102715.75;;;-2.78;71.31
47967;BME280;33733;52.456;13.620;2024-01-11T06:20:27;102715.63;;;-2.86;71.47
47967;BME280;33733;52.456;13.620;2024-01-11T06:22:55;102727.75;;;-2.82;71.35
47967;BME280;33733;52.456;13.620;2024-01-11T06:25:22;102717.53;;;-2.74;71.02
47967;BME280;33733;52.456;13.620;2024-01-11T06:27:49;102721.13;;;-2.66;70.94
47967;BME280;33733;52.456;13.620;2024-01-11T06:30:16;102731.47;;;-2.65;70.67
47967;BME280;33733;52.456;13.620;2024-01-11T06:32:44;102735.03;;;-2.60;70.77
47967;BME280;33733;52.456;13.620;2024-01-11T06:35:12;102727.19;;;-2.64;70.85
47967;BME280;33733;52.456;13.620;2024-01-11T06:37:39;102715.81;;;-2.75;71.07
47967;BME280;33733;52.456;13.620;2024-01-11T06:40:07;102710.69;;;-2.72;71.04
47967;BME280;33733;52.456;13.620;2024-01-11T06:42:35;102699.53;;;-2.70;71.82
47967;BME280;33733;52.456;13.620;2024-01-11T06:45:03;102686.31;;;-2.91;72.06
47967;BME280;33733;52.456;13.620;2024-01-11T06:47:30;102693.84;;;-3.03;72.56
47967;BME280;33733;52.456;13.620;2024-01-11T06:49:58;102690.13;;;-3.17;73.81
47967;BME280;33733;52.456;13.620;2024-01-11T06:52:26;102694.75;;;-3.00;73.92
47967;BME280;33733;52.456;13.620;2024-01-11T06:54:53;102703.78;;;-2.73;72.83
47967;BME280;33733;52.456;13.620;2024-01-11T06:57:21;102698.06;;;-2.56;72.88
47967;BME280;33733;52.456;13.620;2024-01-11T06:59:48;102690.31;;;-2.56;72.87
47967;BME280;33733;52.456;13.620;2024-01-11T07:02:16;102681.00;;;-2.45;72.53
47967;BME280;33733;52.456;13.620;2024-01-11T07:04:44;102680.16;;;-2.45;72.57
47967;BME280;33733;52.456;13.620;2024-01-11T07:07:12;102679.38;;;-2.38;72.62
47967;BME280;33733;52.456;13.620;2024-01-11T07:09:39;102676.97;;;-2.27;72.64
47967;BME280;33733;52.456;13.620;2024-01-11T07:12:06;102671.09;;;-2.14;72.55
47967;BME280;33733;52.456;13.620;2024-01-11T07:14:33;102685.84;;;-2.09;72.28
47967;BME280;33733;52.456;13.620;2024-01-11T07:17:01;102697.13;;;-2.04;72.27
47967;BME280;33733;52.456;13.620;2024-01-11T07:19:28;102689.47;;;-1.96;72.36
47967;BME280;33733;52.456;13.620;2024-01-11T07:21:55;102699.00;;;-1.91;72.93
47967;BME280;33733;52.456;13.620;2024-01-11T07:24:22;102689.44;;;-1.98;73.39
47967;BME280;33733;52.456;13.620;2024-01-11T07:26:49;102679.91;;;-2.02;74.21
47967;BME280;33733;52.456;13.620;2024-01-11T07:29:17;102679.22;;;-1.87;74.49
47967;BME280;33733;52.456;13.620;2024-01-11T07:31:44;102669.91;;;-1.74;73.62
47967;BME280;33733;52.456;13.620;2024-01-11T07:34:11;102687.25;;;-1.66;73.34
47967;BME280;33733;52.456;13.620;2024-01-11T07:36:38;102701.03;;;-1.67;73.21
47967;BME280;33733;52.456;13.620;2024-01-11T07:39:06;102696.66;;;-1.72;73.98
47967;BME280;33733;52.456;13.620;2024-01-11T07:41:33;102688.06;;;-1.70;74.23
47967;BME280;33733;52.456;13.620;2024-01-11T07:44:00;102686.53;;;-1.56;74.16
47967;BME280;33733;52.456;13.620;2024-01-11T07:46:27;102684.75;;;-1.60;74.47
47967;BME280;33733;52.456;13.620;2024-01-11T07:49:07;102690.06;;;-1.46;74.00
47967;BME280;33733;52.456;13.620;2024-01-11T07:51:35;102701.34;;;-1.41;73.80
47967;BME280;33733;52.456;13.620;2024-01-11T07:54:02;102694.47;;;-1.37;73.68
47967;BME280;33733;52.456;13.620;2024-01-11T07:56:30;102694.47;;;-1.37;74.09
47967;BME280;33733;52.456;13.620;2024-01-11T07:58:57;102677.28;;;-1.32;74.40
47967;BME280;33733;52.456;13.620;2024-01-11T08:01:24;102673.03;;;-1.26;74.11
47967;BME280;33733;52.456;13.620;2024-01-11T08:03:52;102671.34;;;-1.24;74.14
47967;BME280;33733;52.456;13.620;2024-01-11T08:06:20;102668.72;;;-1.25;73.99
47967;BME280;33733;52.456;13.620;2024-01-11T08:08:47;102674.00;;;-1.16;73.95
47967;BME280;33733;52.456;13.620;2024-01-11T08:11:19;102673.13;;;-1.17;74.53
47967;BME280;33733;52.456;13.620;2024-01-11T08:13:47;102675.84;;;-1.05;74.06
47967;BME280;33733;52.456;13.620;2024-01-11T08:16:16;102668.88;;;-1.09;74.44
47967;BME280;33733;52.456;13.620;2024-01-11T08:18:43;102666.31;;;-1.06;74.29
47967;BME280;33733;52.456;13.620;2024-01-11T08:21:12;102676.75;;;-0.98;74.08
47967;BME280;33733;52.456;13.620;2024-01-11T08:23:42;102674.13;;;-1.04;74.35
47967;BME280;33733;52.456;13.620;2024-01-11T08:26:15;102672.44;;;-0.98;74.40
47967;BME280;33733;52.456;13.620;2024-01-11T08:28:42;102669.06;;;-0.89;74.11
47967;BME280;33733;52.456;13.620;2024-01-11T08:31:10;102672.53;;;-0.87;73.97
47967;BME280;33733;52.456;13.620;2024-01-11T08:33:37;102678.56;;;-0.86;74.12
47967;BME280;33733;52.456;13.620;2024-01-11T08:36:05;102674.34;;;-0.80;74.16
47967;BME280;33733;52.456;13.620;2024-01-11T08:38:34;102677.78;;;-0.78;73.73
47967;BME280;33733;52.456;13.620;2024-01-11T08:41:05;102669.97;;;-0.84;74.37
47967;BME280;33733;52.456;13.620;2024-01-11T08:43:33;102671.66;;;-0.87;74.60
47967;BME280;33733;52.456;13.620;2024-01-11T08:46:01;102661.34;;;-0.84;74.54
47967;BME280;33733;52.456;13.620;2024-01-11T08:48:29;102655.34;;;-0.80;74.57
47967;BME280;33733;52.456;13.620;2024-01-11T08:50:56;102666.56;;;-0.80;74.73
47967;BME280;33733;52.456;13.620;2024-01-11T08:53:23;102659.63;;;-0.79;74.72
47967;BME280;33733;52.456;13.620;2024-01-11T08:55:51;102661.44;;;-0.71;74.72
47967;BME280;33733;52.456;13.620;2024-01-11T08:58:18;102658.03;;;-0.65;74.74
47967;BME280;33733;52.456;13.620;2024-01-11T09:00:45;102658.94;;;-0.60;74.34
47967;BME280;33733;52.456;13.620;2024-01-11T09:03:12;102651.94;;;-0.70;74.64
47967;BME280;33733;52.456;13.620;2024-01-11T09:05:42;102641.53;;;-0.75;75.15
47967;BME280;33733;52.456;13.620;2024-01-11T09:08:09;102630.41;;;-0.68;75.06
47967;BME280;33733;52.456;13.620;2024-01-11T09:10:37;102620.91;;;-0.63;74.97
47967;BME280;33733;52.456;13.620;2024-01-11T09:13:04;102627.88;;;-0.57;74.77
47967;BME280;33733;52.456;13.620;2024-01-11T09:15:31;102630.47;;;-0.54;74.64
47967;BME280;33733;52.456;13.620;2024-01-11T09:17:59;102630.50;;;-0.50;74.48
47967;BME280;33733;52.456;13.620;2024-01-11T09:20:30;102614.09;;;-0.50;74.67
47967;BME280;33733;52.456;13.620;2024-01-11T09:22:57;102624.25;;;-0.80;75.87
47967;BME280;33733;52.456;13.620;2024-01-11T09:25:24;102633.81;;;-0.67;75.95
47967;BME280;33733;52.456;13.620;2024-01-11T09:27:53;102638.97;;;-0.73;75.69
47967;BME280;33733;52.456;13.620;2024-01-11T09:30:21;102640.78;;;-0.62;75.47
47967;BME280;33733;52.456;13.620;2024-01-11T09:32:48;102637.41;;;-0.47;74.95
47967;BME280;33733;52.456;13.620;2024-01-11T09:35:15;102638.34;;;-0.40;74.83
47967;BME280;33733;52.456;13.620;2024-01-11T09:37:43;102644.38;;;-0.38;74.56
47967;BME280;33733;52.456;13.620;2024-01-11T09:40:13;102637.50;;;-0.36;74.41
47967;BME280;33733;52.456;13.620;2024-01-11T09:42:40;102643.50;;;-0.39;74.73
47967;BME280;33733;52.456;13.620;2024-01-11T09:45:09;102656.56;;;-0.28;74.55
47967;BME280;33733;52.456;13.620;2024-01-11T09:47:38;102651.38;;;-0.24;74.17
47967;BME280;33733;52.456;13.620;2024-01-11T09:50:07;102645.28;;;-0.32;74.66
47967;BME280;33733;52.456;13.620;2024-01-11T09:52:34;102653.88;;;-0.42;75.19
47967;BME280;33733;52.456;13.620;2024-01-11T09:55:03;102656.56;;;-0.25;74.85
47967;BME280;33733;52.456;13.620;2024-01-11T09:57:31;102654.84;;;-0.23;74.17
47967;BME280;33733;52.456;13.620;2024-01-11T10:00:03;102656.50;;;-0.34;74.64
47967;BME280;33733;52.456;13.620;2024-01-11T10:02:34;102656.56;;;-0.28;74.53
47967;BME280;33733;52.456;13.620;2024-01-11T10:05:01;102649.59;;;-0.31;74.61
47967;BME280;33733;52.456;13.620;2024-01-11T10:07:30;102641.88;;;-0.25;74.53
47967;BME280;33733;52.456;13.620;2024-01-11T10:09:57;102642.75;;;-0.23;74.95
47967;BME280;33733;52.456;13.620;2024-01-11T10:12:25;102647.84;;;-0.38;74.87
47967;BME280;33733;52.456;13.620;2024-01-11T10:14:53;102639.25;;;-0.31;75.34
47967;BME280;33733;52.456;13.620;2024-01-11T10:17:20;102639.34;;;-0.11;74.82
47967;BME280;33733;52.456;13.620;2024-01-11T10:19:53;102626.44;;;-0.05;74.34
47967;BME280;33733;52.456;13.620;2024-01-11T10:22:23;102629.88;;;-0.06;74.36
47967;BME280;33733;52.456;13.620;2024-01-11T10:25:10;102624.72;;;-0.02;74.18
47967;BME280;33733;52.456;13.620;2024-01-11T10:27:43;102619.44;;;-0.15;74.77
47967;BME280;33733;52.456;13.620;2024-01-11T10:30:12;102617.59;;;-0.39;75.44
47967;BME280;33733;52.456;13.620;2024-01-11T10:32:47;102608.91;;;-0.50;75.59
47967;BME280;33733;52.456;13.620;2024-01-11T10:35:15;102608.84;;;-0.58;75.88
47967;BME280;33733;52.456;13.620;2024-01-11T10:37:44;102603.75;;;-0.42;75.61
47967;BME280;33733;52.456;13.620;2024-01-11T10:40:12;102612.44;;;-0.37;75.69
47967;BME280;33733;52.456;13.620;2024-01-11T10:42:44;102616.84;;;-0.24;75.02
47967;BME280;33733;52.456;13.620;2024-01-11T10:45:16;102618.63;;;-0.13;75.29
47967;BME280;33733;52.456;13.620;2024-01-11T10:48:02;102621.16;;;-0.19;75.11
47967;BME280;33733;52.456;13.620;2024-01-11T10:50:35;102625.50;;;-0.15;75.45
47967;BME280;33733;52.456;13.620;2024-01-11T10:55:44;102621.25;;;-0.01;75.02
47967;BME280;33733;52.456;13.620;2024-01-11T10:58:13;102617.84;;;0.10;74.71
47967;BME280;33733;52.456;13.620;2024-01-11T11:00:42;102617.81;;;0.08;75.04
47967;BME280;33733;52.456;13.620;2024-01-11T11:03:11;102613.47;;;0.01;74.89
47967;BME280;33733;52.456;13.620;2024-01-11T11:05:40;102605.72;;;0.06;75.04
47967;BME280;33733;52.456;13.620;2024-01-11T11:08:09;102607.38;;;-0.10;75.10
47967;BME280;33733;52.456;13.620;2024-01-11T11:10:38;102606.56;;;0.00;74.94
47967;BME280;33733;52.456;13.620;2024-01-11T11:13:06;102606.59;;;0.06;75.05
47967;BME280;33733;52.456;13.620;2024-01-11T11:15:35;102607.47;;;0.14;75.02
47967;BME280;33733;52.456;13.620;2024-01-11T11:18:05;102605.78;;;0.22;74.91
47967;BME280;33733;52.456;13.620;2024-01-11T11:20:33;102619.63;;;0.26;74.01
47967;BME280;33733;52.456;13.620;2024-01-11T11:23:04;102630.88;;;0.31;74.09
47967;BME280;33733;52.456;13.620;2024-01-11T11:25:32;102621.34;;;0.28;74.00
47967;BME280;33733;52.456;13.620;2024-01-11T11:28:00;102612.69;;;0.22;74.10
47967;BME280;33733;52.456;13.620;2024-01-11T11:30:40;102606.69;;;0.32;73.79
47967;BME280;33733;52.456;13.620;2024-01-11T11:33:23;102624.78;;;0.21;73.89
47967;BME280;33733;52.456;13.620;2024-01-11T11:35:55;102624.75;;;0.14;74.53
47967;BME280;33733;52.456;13.620;2024-01-11T11:38:29;102637.78;;;0.29;73.78
47967;BME280;33733;52.456;13.620;2024-01-11T11:40:58;102650.78;;;0.32;73.87
47967;BME280;33733;52.456;13.620;2024-01-11T11:43:27;102644.72;;;0.33;73.19
47967;BME280;33733;52.456;13.620;2024-01-11T11:45:55;102636.06;;;0.29;73.82
47967;BME280;33733;52.456;13.620;2024-01-11T11:51:13;102627.38;;;0.18;73.88
47967;BME280;33733;52.456;13.620;2024-01-11T11:53:50;102623.06;;;0.19;73.97
47967;BME280;33733;52.456;13.620;2024-01-11T11:56:20;102623.97;;;0.31;73.79
47967;BME280;33733;52.456;13.620;2024-01-11T11:58:48;102620.53;;;0.38;73.46
47967;BME280;33733;52.456;13.620;2024-01-11T12:01:17;102611.88;;;0.41;73.36
47967;BME280;33733;52.456;13.620;2024-01-11T12:03:46;102608.41;;;0.42;72.97
47967;BME280;33733;52.456;13.620;2024-01-11T12:06:18;102610.13;;;0.31;73.71
47967;BME280;33733;52.456;13.620;2024-01-11T12:08:47;102608.34;;;0.15;74.42
47967;BME280;33733;52.456;13.620;2024-01-11T12:11:18;102604.84;;;-0.01;74.73
47967;BME280;33733;52.456;13.620;2024-01-11T12:13:49;102610.06;;;0.20;74.41
47967;BME280;33733;52.456;13.620;2024-01-11T12:16:17;102595.41;;;0.19;73.82
47967;BME280;33733;52.456;13.620;2024-01-11T12:18:44;102609.22;;;0.15;74.45
47967;BME280;33733;52.456;13.620;2024-01-11T12:21:11;102609.22;;;0.21;74.43
47967;BME280;33733;52.456;13.620;2024-01-11T12:23:39;102605.78;;;0.28;74.44
47967;BME280;33733;52.456;13.620;2024-01-11T12:26:07;102617.91;;;0.29;73.89
47967;BME280;33733;52.456;13.620;2024-01-11T12:28:42;102619.63;;;0.29;73.91
47967;BME280;33733;52.456;13.620;2024-01-11T12:31:11;102615.34;;;0.41;74.16
47967;BME280;33733;52.456;13.620;2024-01-11T12:33:39;102610.16;;;0.49;74.14
47967;BME280;33733;52.456;13.620;2024-01-11T12:36:08;102602.38;;;0.49;73.93
47967;BME280;33733;52.456;13.620;2024-01-11T12:38:36;102603.22;;;0.42;73.90
47967;BME280;33733;52.456;13.620;2024-01-11T12:41:04;102601.50;;;0.39;74.46
47967;BME280;33733;52.456;13.620;2024-01-11T12:43:33;102585.91;;;0.36;74.12
47967;BME280;33733;52.456;13.620;2024-01-11T12:46:01;102579.88;;;0.43;74.12
47967;BME280;33733;52.456;13.620;2024-01-11T12:48:29;102576.44;;;0.55;73.65
47967;BME280;33733;52.456;13.620;2024-01-11T12:50:58;102585.97;;;0.52;73.60
47967;BME280;33733;52.456;13.620;2024-01-11T12:53:40;102584.22;;;0.66;74.17